Time;durP1;ratioP1;P1;durP2;ratioP2;P2;SDS_P1;SDS_P2;PMS_P1;PMS_P2;Temp;Humidity;BMP_temperature;BMP_pressure;BME280_temperature;BME280_humidity;BME280_pressure;Samples;Min_cycle;Max_cycle;Signal;HPM_P1;HPM_P2
2023/02/06 00:01:49;;;;;;;1.88;1.40;;;;;;;;;;4538118;28;20392;-62
2023/02/06 00:03:59;;;;;;;1.42;1.33;;;;;;;;;;4537779;28;20068;-62
2023/02/06 00:06:10;;;;;;;1.90;1.55;;;;;;;;;;4522499;28;20113;-62
2023/02/06 00:08:20;;;;;;;1.63;1.40;;;;;;;;;;4538094;28;20037;-62
2023/02/06 00:10:30;;;;;;;1.65;1.48;;;;;;;;;;4538317;28;20481;-61
2023/02/06 00:12:41;;;;;;;2.47;1.40;;;;;;;;;;4538215;28;20090;-62
2023/02/06 00:14:51;;;;;;;1.90;1.77;;;;;;;;;;4538363;28;20073;-62
2023/02/06 00:17:01;;;;;;;1.83;1.50;;;;;;;;;;4537931;28;20044;-61
2023/02/06 00:19:12;;;;;;;1.85;1.38;;;;;;;;;;4538062;28;20706;-62
2023/02/06 00:21:24;;;;;;;1.60;1.48;;;;;;;;;;4538517;28;20120;-62
2023/02/06 00:23:34;;;;;;;2.28;1.80;;;;;;;;;;4537462;28;20073;-62
2023/02/06 00:25:45;;;;;;;1.75;1.63;;;;;;;;;;4537138;28;20120;-62
2023/02/06 00:27:55;;;;;;;2.60;1.65;;;;;;;;;;4538763;28;20056;-62
2023/02/06 00:30:08;;;;;;;1.73;1.40;;;;;;;;;;4504917;28;20054;-62
2023/02/06 00:32:18;;;;;;;1.67;1.30;;;;;;;;;;4538483;28;20131;-62
2023/02/06 00:34:29;;;;;;;1.60;1.50;;;;;;;;;;4537731;28;20092;-62
2023/02/06 00:36:39;;;;;;;1.58;1.45;;;;;;;;;;4538009;28;20024;-60
2023/02/06 00:38:49;;;;;;;2.13;1.60;;;;;;;;;;4537942;28;20028;-60
2023/02/06 00:41:00;;;;;;;1.73;1.50;;;;;;;;;;4537903;28;20029;-60
2023/02/06 00:43:10;;;;;;;1.80;1.67;;;;;;;;;;4538012;28;20057;-60
2023/02/06 00:45:20;;;;;;;1.70;1.60;;;;;;;;;;4520754;28;20040;-60
2023/02/06 00:47:31;;;;;;;1.88;1.67;;;;;;;;;;4537394;28;20037;-60
2023/02/06 00:49:41;;;;;;;1.52;1.42;;;;;;;;;;4538025;28;20033;-63
2023/02/06 00:51:51;;;;;;;1.88;1.50;;;;;;;;;;4538095;28;20048;-63
2023/02/06 00:54:01;;;;;;;1.95;1.58;;;;;;;;;;4517981;28;20071;-63
2023/02/06 00:56:12;;;;;;;1.67;1.50;;;;;;;;;;4538026;28;20060;-60
2023/02/06 00:58:22;;;;;;;1.75;1.30;;;;;;;;;;4503950;28;20418;-60
2023/02/06 01:00:33;;;;;;;1.70;1.50;;;;;;;;;;4537657;28;20048;-61
2023/02/06 01:02:43;;;;;;;1.98;1.40;;;;;;;;;;4519289;28;20034;-59
2023/02/06 01:04:53;;;;;;;1.58;1.40;;;;;;;;;;4518475;28;20548;-60
2023/02/06 01:07:04;;;;;;;1.83;1.30;;;;;;;;;;4517831;28;20048;-60
2023/02/06 01:09:14;;;;;;;1.60;1.40;;;;;;;;;;4537389;28;20091;-60
2023/02/06 01:11:25;;;;;;;2.70;1.33;;;;;;;;;;4537805;28;20048;-60
2023/02/06 01:13:36;;;;;;;1.90;1.30;;;;;;;;;;4536938;28;20792;-60
2023/02/06 01:15:46;;;;;;;1.65;1.40;;;;;;;;;;4537403;28;20043;-60
2023/02/06 01:17:57;;;;;;;1.48;1.23;;;;;;;;;;4536983;28;20175;-60
2023/02/06 01:20:08;;;;;;;1.60;1.33;;;;;;;;;;4518650;28;20631;-59
2023/02/06 01:22:19;;;;;;;1.48;1.38;;;;;;;;;;4537473;28;20040;-60
2023/02/06 01:24:29;;;;;;;1.70;1.40;;;;;;;;;;4536872;28;20528;-60
2023/02/06 01:26:40;;;;;;;2.33;1.40;;;;;;;;;;4518543;28;20045;-58
2023/02/06 01:28:50;;;;;;;1.48;1.10;;;;;;;;;;4537156;28;20037;-60
2023/02/06 01:31:00;;;;;;;2.33;1.45;;;;;;;;;;4519343;28;20041;-60
2023/02/06 01:33:10;;;;;;;2.25;1.30;;;;;;;;;;4518500;28;20536;-60
2023/02/06 01:35:21;;;;;;;1.55;1.30;;;;;;;;;;4537299;28;20547;-60
2023/02/06 01:37:31;;;;;;;2.85;1.35;;;;;;;;;;4537395;28;20056;-59
2023/02/06 01:39:43;;;;;;;1.83;1.27;;;;;;;;;;4536025;28;20045;-60
2023/02/06 01:41:53;;;;;;;1.70;1.30;;;;;;;;;;4536651;28;20417;-60
2023/02/06 01:44:23;;;;;;;1.65;1.20;;;;;;;;;;4518902;28;20044;-60
2023/02/06 01:46:33;;;;;;;2.08;1.40;;;;;;;;;;4518951;28;20076;-60
2023/02/06 01:48:48;;;;;;;2.03;1.40;;;;;;;;;;4536939;28;20083;-60
2023/02/06 01:50:59;;;;;;;1.98;1.30;;;;;;;;;;4536518;28;20035;-61
2023/02/06 01:53:10;;;;;;;2.33;1.40;;;;;;;;;;4537056;28;20040;-60
2023/02/06 01:55:20;;;;;;;1.85;1.50;;;;;;;;;;4536776;28;20033;-60
2023/02/06 01:57:31;;;;;;;2.15;1.40;;;;;;;;;;4536506;28;20502;-61
2023/02/06 01:59:44;;;;;;;2.22;1.33;;;;;;;;;;4501491;28;20545;-60
2023/02/06 02:01:54;;;;;;;2.03;1.30;;;;;;;;;;4537474;28;20720;-60
2023/02/06 02:04:06;;;;;;;2.47;1.35;;;;;;;;;;4536743;28;20045;-60
2023/02/06 02:06:19;;;;;;;2.28;1.60;;;;;;;;;;4536945;28;21343;-59
2023/02/06 02:08:35;;;;;;;2.05;1.17;;;;;;;;;;4535198;28;20294;-60
2023/02/06 02:10:46;;;;;;;1.37;1.20;;;;;;;;;;4536772;28;20602;-60
2023/02/06 02:12:56;;;;;;;1.45;1.27;;;;;;;;;;4536680;28;20102;-60
2023/02/06 02:15:07;;;;;;;2.55;1.45;;;;;;;;;;4536807;28;20519;-60
2023/02/06 02:17:39;;;;;;;2.15;1.30;;;;;;;;;;4519469;28;20048;-60
2023/02/06 02:20:02;;;;;;;1.95;1.42;;;;;;;;;;4539494;28;20037;-60
2023/02/06 02:22:35;;;;;;;1.60;1.20;;;;;;;;;;4539831;28;20207;-60
2023/02/06 02:24:51;;;;;;;2.45;1.40;;;;;;;;;;4529323;28;20146;-60
2023/02/06 02:27:21;;;;;;;1.90;1.30;;;;;;;;;;4520505;28;20724;-60
2023/02/06 02:29:31;;;;;;;2.83;1.30;;;;;;;;;;4539450;28;20037;-60
2023/02/06 02:31:51;;;;;;;1.65;1.30;;;;;;;;;;4539381;28;20033;-60
2023/02/06 02:34:12;;;;;;;2.17;1.42;;;;;;;;;;4537985;28;20037;-60
2023/02/06 02:36:29;;;;;;;1.98;1.50;;;;;;;;;;4539619;28;20044;-60
2023/02/06 02:38:49;;;;;;;2.38;1.50;;;;;;;;;;4522909;28;20140;-60
2023/02/06 02:41:08;;;;;;;1.80;1.30;;;;;;;;;;4519897;28;20077;-60
2023/02/06 02:43:28;;;;;;;2.17;1.50;;;;;;;;;;4537539;28;20548;-59
2023/02/06 02:45:42;;;;;;;2.10;1.38;;;;;;;;;;4521728;28;21307;-60
2023/02/06 02:48:03;;;;;;;1.50;1.30;;;;;;;;;;4538435;28;20115;-59
2023/02/06 02:50:15;;;;;;;2.35;1.55;;;;;;;;;;4539592;28;20037;-61
2023/02/06 02:52:25;;;;;;;2.80;1.63;;;;;;;;;;4537790;28;20037;-60
2023/02/06 02:54:35;;;;;;;2.40;1.40;;;;;;;;;;4538998;28;20033;-61
2023/02/06 02:56:46;;;;;;;2.03;1.40;;;;;;;;;;4520307;28;20034;-59
2023/02/06 02:59:00;;;;;;;1.67;1.20;;;;;;;;;;4520486;28;20025;-61
2023/02/06 03:01:14;;;;;;;2.67;1.50;;;;;;;;;;4520157;28;20033;-62
2023/02/06 03:03:27;;;;;;;1.80;1.50;;;;;;;;;;4520547;28;20034;-60
2023/02/06 03:05:49;;;;;;;2.88;1.30;;;;;;;;;;4520154;28;20053;-60
2023/02/06 03:08:12;;;;;;;1.75;1.30;;;;;;;;;;4536494;28;20037;-60
2023/02/06 03:10:32;;;;;;;2.70;1.45;;;;;;;;;;4520449;28;20137;-60
2023/02/06 03:12:42;;;;;;;1.80;1.13;;;;;;;;;;4538892;28;20943;-60
2023/02/06 03:15:01;;;;;;;1.45;1.20;;;;;;;;;;4522745;28;20113;-61
2023/02/06 03:17:14;;;;;;;1.83;1.25;;;;;;;;;;4519616;28;20105;-62
2023/02/06 03:19:30;;;;;;;1.58;1.40;;;;;;;;;;4520276;28;20072;-62
2023/02/06 03:21:43;;;;;;;2.33;1.25;;;;;;;;;;4520152;28;20104;-61
2023/02/06 03:23:56;;;;;;;1.55;1.30;;;;;;;;;;4538327;28;20152;-62
2023/02/06 03:26:08;;;;;;;2.30;1.30;;;;;;;;;;4520067;28;20037;-62
2023/02/06 03:28:26;;;;;;;2.28;1.33;;;;;;;;;;4537698;28;20025;-62
2023/02/06 03:30:42;;;;;;;2.42;1.70;;;;;;;;;;4538325;28;20726;-61
2023/02/06 03:32:56;;;;;;;2.72;1.83;;;;;;;;;;4539030;28;20076;-62
2023/02/06 03:35:12;;;;;;;2.20;1.55;;;;;;;;;;4538508;28;20128;-62
2023/02/06 03:37:23;;;;;;;2.03;1.40;;;;;;;;;;4538764;28;20039;-62
2023/02/06 03:39:33;;;;;;;2.17;1.52;;;;;;;;;;4538162;28;20044;-62
2023/02/06 03:41:45;;;;;;;2.47;1.40;;;;;;;;;;4518858;28;20037;-61
2023/02/06 03:43:57;;;;;;;2.25;1.50;;;;;;;;;;4518997;28;20042;-62
2023/02/06 03:46:11;;;;;;;1.90;1.45;;;;;;;;;;4538775;28;20040;-62
2023/02/06 03:48:30;;;;;;;2.65;1.80;;;;;;;;;;4537984;28;20040;-62
2023/02/06 03:50:41;;;;;;;2.53;2.05;;;;;;;;;;4538311;28;20048;-61
2023/02/06 03:52:52;;;;;;;2.20;1.80;;;;;;;;;;4538206;28;20040;-62
2023/02/06 03:55:05;;;;;;;2.20;1.80;;;;;;;;;;4538466;28;20123;-62
2023/02/06 03:57:18;;;;;;;2.25;1.70;;;;;;;;;;4538328;28;20033;-61
2023/02/06 03:59:29;;;;;;;3.47;1.70;;;;;;;;;;4538825;28;20708;-61
2023/02/06 04:01:44;;;;;;;2.55;1.63;;;;;;;;;;4538337;28;20029;-61
2023/02/06 04:03:54;;;;;;;1.75;1.40;;;;;;;;;;4538305;28;20045;-61
2023/02/06 04:06:04;;;;;;;2.75;1.48;;;;;;;;;;4538215;28;20040;-61
2023/02/06 04:08:15;;;;;;;2.38;1.55;;;;;;;;;;4519368;28;20067;-62
2023/02/06 04:10:25;;;;;;;1.60;1.40;;;;;;;;;;4537837;28;20048;-61
2023/02/06 04:12:35;;;;;;;2.05;1.45;;;;;;;;;;4538852;28;20029;-61
2023/02/06 04:14:46;;;;;;;2.60;1.60;;;;;;;;;;4538002;28;20037;-61
2023/02/06 04:16:56;;;;;;;2.33;1.70;;;;;;;;;;4538048;28;20481;-62
2023/02/06 04:19:06;;;;;;;2.40;1.63;;;;;;;;;;4537675;28;20041;-60
2023/02/06 04:21:17;;;;;;;2.47;1.60;;;;;;;;;;4538080;28;20102;-60
2023/02/06 04:23:27;;;;;;;2.50;1.70;;;;;;;;;;4537550;28;20545;-61
2023/02/06 04:25:37;;;;;;;2.75;1.67;;;;;;;;;;4537830;28;20596;-60
2023/02/06 04:27:48;;;;;;;2.42;1.60;;;;;;;;;;4538163;28;20485;-61
2023/02/06 04:29:58;;;;;;;2.40;1.60;;;;;;;;;;4537808;28;20512;-61
2023/02/06 04:32:09;;;;;;;2.40;1.60;;;;;;;;;;4537736;28;20041;-62
2023/02/06 04:34:19;;;;;;;2.35;1.58;;;;;;;;;;4537794;28;20036;-61
2023/02/06 04:36:29;;;;;;;2.60;1.80;;;;;;;;;;4537417;28;20033;-61
2023/02/06 04:38:40;;;;;;;2.15;1.67;;;;;;;;;;4537550;28;20428;-61
2023/02/06 04:40:50;;;;;;;2.30;1.70;;;;;;;;;;4536984;28;20037;-61
2023/02/06 04:43:00;;;;;;;3.15;1.85;;;;;;;;;;4537500;28;20267;-61
2023/02/06 04:45:10;;;;;;;2.28;1.80;;;;;;;;;;4537661;28;20117;-62
2023/02/06 04:47:21;;;;;;;2.85;1.90;;;;;;;;;;4537362;28;20099;-61
2023/02/06 04:49:31;;;;;;;3.05;1.90;;;;;;;;;;4537970;28;20032;-61
2023/02/06 04:51:42;;;;;;;2.47;1.75;;;;;;;;;;4535959;28;20036;-60
2023/02/06 04:53:52;;;;;;;2.45;1.83;;;;;;;;;;4537760;28;20037;-61
2023/02/06 04:56:03;;;;;;;3.45;2.20;;;;;;;;;;4520612;28;20049;-61
2023/02/06 04:58:13;;;;;;;2.80;1.90;;;;;;;;;;4537270;28;20039;-60
2023/02/06 05:00:24;;;;;;;2.78;2.03;;;;;;;;;;4537802;28;20051;-61
2023/02/06 05:02:38;;;;;;;2.47;1.80;;;;;;;;;;4538250;28;20029;-61
2023/02/06 05:04:48;;;;;;;2.38;1.80;;;;;;;;;;4537520;28;20029;-61
2023/02/06 05:06:58;;;;;;;1.95;1.67;;;;;;;;;;4536903;28;20561;-61
2023/02/06 05:09:09;;;;;;;2.75;1.65;;;;;;;;;;4537050;28;20029;-61
2023/02/06 05:11:19;;;;;;;2.33;1.40;;;;;;;;;;4538071;28;20095;-61
2023/02/06 05:13:29;;;;;;;2.30;1.80;;;;;;;;;;4536626;28;20113;-61
2023/02/06 05:15:40;;;;;;;2.70;1.70;;;;;;;;;;4537393;28;20121;-60
2023/02/06 05:17:50;;;;;;;2.63;1.70;;;;;;;;;;4536943;28;20108;-61
2023/02/06 05:20:00;;;;;;;3.20;2.00;;;;;;;;;;4537949;28;20040;-61
2023/02/06 05:22:11;;;;;;;2.85;1.95;;;;;;;;;;4537141;28;20453;-62
2023/02/06 05:24:21;;;;;;;3.33;2.65;;;;;;;;;;4536961;28;20040;-62
2023/02/06 05:26:31;;;;;;;3.65;2.55;;;;;;;;;;4522342;28;20044;-61
2023/02/06 05:28:42;;;;;;;4.15;2.70;;;;;;;;;;4537136;28;20119;-61
2023/02/06 05:30:52;;;;;;;3.38;2.42;;;;;;;;;;4536438;28;20121;-61
2023/02/06 05:33:02;;;;;;;5.05;3.55;;;;;;;;;;4536704;28;20122;-61
2023/02/06 05:35:13;;;;;;;5.65;3.40;;;;;;;;;;4536634;28;20072;-61
2023/02/06 05:37:23;;;;;;;4.90;3.30;;;;;;;;;;4536617;28;20029;-61
2023/02/06 05:39:33;;;;;;;5.03;3.42;;;;;;;;;;4536782;28;20493;-61
2023/02/06 05:41:43;;;;;;;4.85;3.20;;;;;;;;;;4537084;28;20037;-61
2023/02/06 05:43:54;;;;;;;6.07;3.90;;;;;;;;;;4518456;28;20041;-61
2023/02/06 05:46:04;;;;;;;4.85;2.92;;;;;;;;;;4536572;28;20026;-62
2023/02/06 05:48:14;;;;;;;2.95;2.40;;;;;;;;;;4536701;28;20444;-61
2023/02/06 05:50:25;;;;;;;2.70;1.80;;;;;;;;;;4521710;28;20402;-61
2023/02/06 05:52:36;;;;;;;3.90;2.03;;;;;;;;;;4538830;28;20050;-61
2023/02/06 05:54:47;;;;;;;3.28;2.00;;;;;;;;;;4540209;28;20029;-62
2023/02/06 05:56:57;;;;;;;3.28;2.15;;;;;;;;;;4539619;28;20044;-61
2023/02/06 05:59:07;;;;;;;2.55;1.67;;;;;;;;;;4540387;28;20059;-61
2023/02/06 06:01:18;;;;;;;2.42;1.70;;;;;;;;;;4540327;28;20041;-61
2023/02/06 06:03:28;;;;;;;2.42;1.60;;;;;;;;;;4539679;28;20124;-60
2023/02/06 06:05:38;;;;;;;3.35;1.70;;;;;;;;;;4520876;28;20056;-61
2023/02/06 06:07:48;;;;;;;2.42;1.60;;;;;;;;;;4539726;28;20041;-61
2023/02/06 06:09:59;;;;;;;3.25;1.80;;;;;;;;;;4539467;28;20036;-60
2023/02/06 06:12:09;;;;;;;2.22;1.60;;;;;;;;;;4539162;28;20118;-60
2023/02/06 06:14:19;;;;;;;2.92;1.83;;;;;;;;;;4540462;28;20107;-61
2023/02/06 06:16:30;;;;;;;2.50;1.60;;;;;;;;;;4539289;28;20517;-60
2023/02/06 06:18:40;;;;;;;3.03;1.50;;;;;;;;;;4539470;28;20427;-61
2023/02/06 06:20:51;;;;;;;2.33;1.60;;;;;;;;;;4539531;28;20492;-60
2023/02/06 06:23:02;;;;;;;2.28;1.55;;;;;;;;;;4521081;28;20124;-60
2023/02/06 06:25:12;;;;;;;2.58;1.70;;;;;;;;;;4539713;28;20124;-61
2023/02/06 06:27:22;;;;;;;2.55;1.50;;;;;;;;;;4539103;28;20052;-62
2023/02/06 06:29:33;;;;;;;2.33;1.60;;;;;;;;;;4521087;28;20425;-60
2023/02/06 06:31:43;;;;;;;2.75;1.70;;;;;;;;;;4539542;28;20095;-60
2023/02/06 06:33:53;;;;;;;2.47;1.60;;;;;;;;;;4539400;28;20083;-59
2023/02/06 06:36:04;;;;;;;1.98;1.50;;;;;;;;;;4539424;28;20107;-61
2023/02/06 06:38:15;;;;;;;2.85;1.50;;;;;;;;;;4539871;28;20037;-60
2023/02/06 06:40:25;;;;;;;2.55;1.40;;;;;;;;;;4538677;28;20033;-63
2023/02/06 06:42:35;;;;;;;2.17;1.70;;;;;;;;;;4539693;28;20489;-61
2023/02/06 06:44:46;;;;;;;2.97;1.80;;;;;;;;;;4538958;28;20861;-60
2023/02/06 06:46:56;;;;;;;1.85;1.30;;;;;;;;;;4538127;28;20055;-60
2023/02/06 06:49:06;;;;;;;2.75;1.63;;;;;;;;;;4539217;28;20037;-62
2023/02/06 06:51:17;;;;;;;2.08;1.55;;;;;;;;;;4515494;28;20036;-61
2023/02/06 06:53:27;;;;;;;1.98;1.58;;;;;;;;;;4536814;28;20505;-61
2023/02/06 06:55:37;;;;;;;2.35;1.70;;;;;;;;;;4538624;28;20049;-62
2023/02/06 06:57:48;;;;;;;2.35;1.50;;;;;;;;;;4538648;28;20107;-62
2023/02/06 06:59:58;;;;;;;2.53;1.70;;;;;;;;;;4520342;28;20639;-61
2023/02/06 07:02:09;;;;;;;2.65;1.65;;;;;;;;;;4538712;28;20485;-64
2023/02/06 07:04:19;;;;;;;2.30;1.40;;;;;;;;;;4536914;28;20175;-62
2023/02/06 07:06:30;;;;;;;2.25;1.55;;;;;;;;;;4538406;28;20163;-61
2023/02/06 07:08:40;;;;;;;2.53;1.70;;;;;;;;;;4504386;28;20034;-62
2023/02/06 07:10:51;;;;;;;2.97;1.85;;;;;;;;;;4519800;28;20040;-63
2023/02/06 07:13:01;;;;;;;2.17;1.67;;;;;;;;;;4538104;28;20489;-62
2023/02/06 07:15:11;;;;;;;3.33;2.03;;;;;;;;;;4537642;28;20041;-61
2023/02/06 07:17:22;;;;;;;2.50;1.63;;;;;;;;;;4537521;28;20037;-62
2023/02/06 07:19:32;;;;;;;3.35;2.10;;;;;;;;;;4520472;28;20049;-62
2023/02/06 07:21:42;;;;;;;3.00;2.00;;;;;;;;;;4538281;28;20745;-62
2023/02/06 07:23:53;;;;;;;2.63;1.63;;;;;;;;;;4538374;28;20362;-62
2023/02/06 07:26:03;;;;;;;2.83;1.55;;;;;;;;;;4538083;28;20041;-62
2023/02/06 07:28:14;;;;;;;2.75;1.75;;;;;;;;;;4520272;28;20056;-62
2023/02/06 07:30:24;;;;;;;2.65;1.70;;;;;;;;;;4519833;28;20047;-62
2023/02/06 07:32:35;;;;;;;2.97;1.63;;;;;;;;;;4537462;28;20043;-62
2023/02/06 07:34:45;;;;;;;2.67;1.70;;;;;;;;;;4537191;28;20985;-62
2023/02/06 07:36:58;;;;;;;2.15;1.70;;;;;;;;;;4537407;28;20040;-62
2023/02/06 07:39:08;;;;;;;2.10;1.33;;;;;;;;;;4519985;28;20061;-62
2023/02/06 07:41:19;;;;;;;2.60;1.90;;;;;;;;;;4538870;28;20112;-63
2023/02/06 07:43:29;;;;;;;3.05;1.92;;;;;;;;;;4538187;28;20148;-62
2023/02/06 07:45:40;;;;;;;3.45;1.80;;;;;;;;;;4520990;28;20061;-62
2023/02/06 07:47:50;;;;;;;2.60;1.75;;;;;;;;;;4537230;28;20045;-62
2023/02/06 07:50:03;;;;;;;4.15;2.60;;;;;;;;;;4521536;28;20039;-62
2023/02/06 07:52:14;;;;;;;3.00;2.10;;;;;;;;;;4520184;28;20050;-63
2023/02/06 07:54:25;;;;;;;2.85;2.22;;;;;;;;;;4521043;28;20041;-63
2023/02/06 07:56:35;;;;;;;3.60;2.08;;;;;;;;;;4538835;28;20028;-64
2023/02/06 07:58:49;;;;;;;3.13;2.03;;;;;;;;;;4538652;28;20071;-63
2023/02/06 08:01:04;;;;;;;3.55;1.90;;;;;;;;;;4539324;28;20040;-63
2023/02/06 08:03:14;;;;;;;2.65;1.70;;;;;;;;;;4539449;28;20665;-62
2023/02/06 08:05:24;;;;;;;4.03;2.08;;;;;;;;;;4538297;28;20404;-63
2023/02/06 08:07:35;;;;;;;2.38;1.70;;;;;;;;;;4538098;28;20040;-63
2023/02/06 08:09:45;;;;;;;2.25;1.80;;;;;;;;;;4539141;28;20095;-63
2023/02/06 08:11:55;;;;;;;2.88;1.90;;;;;;;;;;4538344;28;20401;-63
2023/02/06 08:14:06;;;;;;;3.05;1.80;;;;;;;;;;4538991;28;20044;-63
2023/02/06 08:16:18;;;;;;;3.20;2.10;;;;;;;;;;4538295;28;20138;-63
2023/02/06 08:18:28;;;;;;;3.38;2.05;;;;;;;;;;4537787;28;20144;-63
2023/02/06 08:20:38;;;;;;;3.00;2.00;;;;;;;;;;4539100;28;20037;-63
2023/02/06 08:22:49;;;;;;;2.45;1.70;;;;;;;;;;4538615;28;20439;-63
2023/02/06 08:24:59;;;;;;;2.17;1.65;;;;;;;;;;4538178;28;20060;-63
2023/02/06 08:27:09;;;;;;;1.55;1.45;;;;;;;;;;4539130;28;20103;-65
2023/02/06 08:29:20;;;;;;;1.70;1.45;;;;;;;;;;4538143;28;20296;-63
2023/02/06 08:31:32;;;;;;;1.38;1.27;;;;;;;;;;4538669;28;20037;-62
2023/02/06 08:33:42;;;;;;;2.10;1.45;;;;;;;;;;4520205;28;20045;-64
2023/02/06 08:35:53;;;;;;;1.50;1.40;;;;;;;;;;4521312;28;20040;-61
2023/02/06 08:38:03;;;;;;;1.40;1.20;;;;;;;;;;4538240;28;20033;-65
2023/02/06 08:40:13;;;;;;;1.65;1.38;;;;;;;;;;4538470;28;20281;-64
2023/02/06 08:42:23;;;;;;;1.60;1.20;;;;;;;;;;4538316;28;20505;-63
2023/02/06 08:44:34;;;;;;;1.48;1.38;;;;;;;;;;4539248;28;20040;-61
2023/02/06 08:46:45;;;;;;;1.30;1.20;;;;;;;;;;4538471;28;20052;-61
2023/02/06 08:49:22;;;;;;;1.27;1.10;;;;;;;;;;4536683;28;20037;-61
2023/02/06 08:51:33;;;;;;;1.15;1.05;;;;;;;;;;4533541;28;20060;-63
2023/02/06 08:53:43;;;;;;;1.20;1.10;;;;;;;;;;4537582;28;20024;-63
2023/02/06 08:56:01;;;;;;;1.20;1.10;;;;;;;;;;4537108;28;20041;-63
2023/02/06 08:58:11;;;;;;;1.30;1.20;;;;;;;;;;4536988;28;20033;-60
2023/02/06 09:00:22;;;;;;;1.10;1.00;;;;;;;;;;4519798;28;20025;-63
2023/02/06 09:02:32;;;;;;;1.10;1.00;;;;;;;;;;4537768;28;20529;-63
2023/02/06 09:04:43;;;;;;;1.05;1.00;;;;;;;;;;4537507;28;20052;-60
2023/02/06 09:06:53;;;;;;;1.20;1.10;;;;;;;;;;4537806;28;20048;-62
2023/02/06 09:09:04;;;;;;;1.20;1.10;;;;;;;;;;4538098;28;20029;-64
2023/02/06 09:11:15;;;;;;;1.25;1.15;;;;;;;;;;4519415;28;20048;-64
2023/02/06 09:13:26;;;;;;;1.05;1.00;;;;;;;;;;4537907;28;20032;-63
2023/02/06 09:15:36;;;;;;;1.20;1.10;;;;;;;;;;4538329;28;20043;-63
2023/02/06 09:17:46;;;;;;;1.00;1.00;;;;;;;;;;4535587;28;20353;-63
2023/02/06 09:19:57;;;;;;;1.30;1.20;;;;;;;;;;4519762;28;20041;-63
2023/02/06 09:22:08;;;;;;;1.15;1.05;;;;;;;;;;4537954;28;20043;-63
2023/02/06 09:24:18;;;;;;;1.17;1.08;;;;;;;;;;4537278;28;20045;-63
2023/02/06 09:26:30;;;;;;;1.15;1.05;;;;;;;;;;4537937;28;20102;-63
2023/02/06 09:28:40;;;;;;;1.23;1.13;;;;;;;;;;4540469;28;20087;-62
2023/02/06 09:30:50;;;;;;;1.13;1.02;;;;;;;;;;4541214;28;20096;-63
2023/02/06 09:33:00;;;;;;;1.42;1.33;;;;;;;;;;4541307;28;20041;-65
2023/02/06 09:35:11;;;;;;;1.30;1.20;;;;;;;;;;4541140;28;20588;-65
2023/02/06 09:37:22;;;;;;;1.35;1.25;;;;;;;;;;4523817;28;20021;-64
2023/02/06 09:39:32;;;;;;;1.33;1.23;;;;;;;;;;4539263;28;20099;-63
2023/02/06 09:41:51;;;;;;;1.40;1.30;;;;;;;;;;4505614;28;20045;-65
2023/02/06 09:44:06;;;;;;;1.42;1.20;;;;;;;;;;4540768;28;20593;-64
2023/02/06 09:46:20;;;;;;;1.38;1.27;;;;;;;;;;4540444;28;20079;-62
2023/02/06 09:48:33;;;;;;;1.73;1.27;;;;;;;;;;4538269;28;21102;-63
2023/02/06 09:50:55;;;;;;;1.85;1.40;;;;;;;;;;4540284;28;20576;-63
2023/02/06 09:53:08;;;;;;;1.58;1.30;;;;;;;;;;4540174;28;20607;-63
2023/02/06 09:55:27;;;;;;;1.30;1.20;;;;;;;;;;4540042;28;20035;-62
2023/02/06 09:57:43;;;;;;;1.48;1.17;;;;;;;;;;4538802;28;20131;-63
2023/02/06 09:59:57;;;;;;;1.40;1.30;;;;;;;;;;4540346;28;20863;-63
2023/02/06 10:02:10;;;;;;;1.70;1.45;;;;;;;;;;4540068;28;20789;-63
2023/02/06 10:04:28;;;;;;;1.60;1.40;;;;;;;;;;4540714;28;20041;-63
2023/02/06 10:06:41;;;;;;;1.88;1.50;;;;;;;;;;4539722;28;20068;-63
2023/02/06 10:08:59;;;;;;;2.25;1.50;;;;;;;;;;4540084;28;20644;-63
2023/02/06 10:11:16;;;;;;;1.63;1.50;;;;;;;;;;4521649;28;20049;-63
2023/02/06 10:13:37;;;;;;;1.73;1.50;;;;;;;;;;4539889;28;20130;-63
2023/02/06 10:15:50;;;;;;;1.98;1.58;;;;;;;;;;4540395;28;20044;-63
2023/02/06 10:18:04;;;;;;;2.60;1.70;;;;;;;;;;4521432;28;20104;-63
2023/02/06 10:20:28;;;;;;;1.85;1.60;;;;;;;;;;4521492;28;20045;-63
2023/02/06 10:22:46;;;;;;;1.88;1.50;;;;;;;;;;4539706;28;20033;-63
2023/02/06 10:25:10;;;;;;;1.60;1.50;;;;;;;;;;4539644;28;20048;-63
2023/02/06 10:27:20;;;;;;;2.33;1.70;;;;;;;;;;4538632;28;20040;-63
2023/02/06 10:29:32;;;;;;;1.40;1.30;;;;;;;;;;4523672;28;20044;-63
2023/02/06 10:31:56;;;;;;;1.38;1.27;;;;;;;;;;4522182;28;20044;-63
2023/02/06 10:34:22;;;;;;;2.33;1.70;;;;;;;;;;4539887;28;20039;-63
2023/02/06 10:36:35;;;;;;;2.03;1.63;;;;;;;;;;4540356;28;20056;-63
2023/02/06 10:39:09;;;;;;;2.20;1.65;;;;;;;;;;4520963;28;20854;-63
2023/02/06 10:41:28;;;;;;;2.20;1.70;;;;;;;;;;4528691;28;20057;-64
2023/02/06 10:43:48;;;;;;;2.03;1.52;;;;;;;;;;4521203;28;20025;-63
2023/02/06 10:46:19;;;;;;;2.42;1.85;;;;;;;;;;4540000;28;21028;-63
2023/02/06 10:48:33;;;;;;;2.28;1.80;;;;;;;;;;4537868;28;20132;-63
2023/02/06 10:50:51;;;;;;;2.10;1.70;;;;;;;;;;4540070;28;20051;-63
2023/02/06 10:53:24;;;;;;;2.15;1.70;;;;;;;;;;4539119;28;20033;-63
2023/02/06 10:55:44;;;;;;;3.25;1.80;;;;;;;;;;4519897;28;20036;-63
2023/02/06 10:58:15;;;;;;;2.17;1.60;;;;;;;;;;4515577;28;20071;-62
2023/02/06 11:00:26;;;;;;;1.85;1.55;;;;;;;;;;4538615;28;20850;-63
2023/02/06 11:02:54;;;;;;;2.38;1.80;;;;;;;;;;4539401;28;20033;-63
2023/02/06 11:05:07;;;;;;;1.77;1.50;;;;;;;;;;4539870;28;20040;-63
2023/02/06 11:07:23;;;;;;;1.90;1.63;;;;;;;;;;4538234;28;20051;-63
2023/02/06 11:09:34;;;;;;;1.92;1.67;;;;;;;;;;4521369;28;20089;-63
2023/02/06 11:11:46;;;;;;;2.20;1.70;;;;;;;;;;4539898;28;20099;-63
2023/02/06 11:14:12;;;;;;;2.20;1.80;;;;;;;;;;4537906;28;20051;-66
2023/02/06 11:16:26;;;;;;;2.08;1.80;;;;;;;;;;4539424;28;20021;-63
2023/02/06 11:18:42;;;;;;;2.00;1.70;;;;;;;;;;4538721;28;20094;-63
2023/02/06 11:20:52;;;;;;;1.73;1.60;;;;;;;;;;4520920;28;20632;-63
2023/02/06 11:23:16;;;;;;;1.83;1.50;;;;;;;;;;4539314;28;20072;-62
2023/02/06 11:25:28;;;;;;;2.10;1.73;;;;;;;;;;4538607;28;20052;-63
2023/02/06 11:27:40;;;;;;;2.03;1.80;;;;;;;;;;4538090;28;20716;-63
2023/02/06 11:29:50;;;;;;;2.08;1.65;;;;;;;;;;4520835;28;20044;-63
2023/02/06 11:32:02;;;;;;;2.00;1.70;;;;;;;;;;4521836;28;20500;-63
2023/02/06 11:34:33;;;;;;;2.03;1.73;;;;;;;;;;4538167;28;20664;-63
2023/02/06 11:36:43;;;;;;;2.03;1.83;;;;;;;;;;4538258;28;20571;-63
2023/02/06 11:38:58;;;;;;;2.15;1.80;;;;;;;;;;4538698;28;20067;-63
2023/02/06 11:41:18;;;;;;;2.50;1.92;;;;;;;;;;4539826;28;20048;-63
2023/02/06 11:43:33;;;;;;;2.60;2.22;;;;;;;;;;4521166;28;20264;-63
2023/02/06 11:45:44;;;;;;;2.47;2.28;;;;;;;;;;4538336;28;20041;-63
2023/02/06 11:47:54;;;;;;;2.30;2.00;;;;;;;;;;4539391;28;20041;-62
2023/02/06 11:50:11;;;;;;;2.13;1.90;;;;;;;;;;4539467;28;20043;-63
2023/02/06 11:52:31;;;;;;;2.60;1.95;;;;;;;;;;4538656;28;20575;-63
2023/02/06 11:54:52;;;;;;;2.30;2.08;;;;;;;;;;4538824;28;20034;-63
2023/02/06 11:57:06;;;;;;;2.35;2.08;;;;;;;;;;4539080;28;20095;-63
2023/02/06 11:59:23;;;;;;;2.42;2.22;;;;;;;;;;4538278;28;20230;-63
2023/02/06 12:01:37;;;;;;;2.20;2.00;;;;;;;;;;4520132;28;20029;-63
2023/02/06 12:03:55;;;;;;;2.65;2.13;;;;;;;;;;4519957;28;20049;-63
2023/02/06 12:06:20;;;;;;;2.25;2.05;;;;;;;;;;4539313;28;20032;-63
2023/02/06 12:08:42;;;;;;;2.30;2.08;;;;;;;;;;4539582;28;20868;-63
2023/02/06 12:10:56;;;;;;;2.72;2.20;;;;;;;;;;4538569;28;20660;-63
2023/02/06 12:13:07;;;;;;;2.35;2.15;;;;;;;;;;4510209;28;20672;-63
2023/02/06 12:15:38;;;;;;;2.78;2.20;;;;;;;;;;4520564;28;20290;-63
2023/02/06 12:17:55;;;;;;;2.45;2.17;;;;;;;;;;4519252;28;20053;-63
2023/02/06 12:20:05;;;;;;;;;;;;;;;;;;4521992;28;20080;-62
2023/02/06 12:22:22;;;;;;;2.47;2.22;;;;;;;;;;4539113;28;19921;-63
2023/02/06 12:24:44;;;;;;;2.45;2.20;;;;;;;;;;4537942;28;20041;-63
2023/02/06 12:26:56;;;;;;;2.58;2.38;;;;;;;;;;4537450;28;21747;-63
2023/02/06 12:29:16;;;;;;;2.53;2.30;;;;;;;;;;4538688;28;20464;-63
2023/02/06 12:31:30;;;;;;;2.78;2.30;;;;;;;;;;4537985;28;20041;-62
2023/02/06 12:33:43;;;;;;;2.25;2.05;;;;;;;;;;4538082;28;20519;-62
2023/02/06 12:36:02;;;;;;;2.97;2.67;;;;;;;;;;4537228;28;20660;-63
2023/02/06 12:38:20;;;;;;;3.40;2.70;;;;;;;;;;4537442;28;20136;-63
2023/02/06 12:40:49;;;;;;;3.03;2.55;;;;;;;;;;4537584;28;20123;-63
2023/02/06 12:43:01;;;;;;;2.88;2.53;;;;;;;;;;4537218;28;20216;-63
2023/02/06 12:45:14;;;;;;;2.80;2.42;;;;;;;;;;4535752;28;20033;-63
2023/02/06 12:47:37;;;;;;;3.35;2.40;;;;;;;;;;4518972;28;20049;-63
2023/02/06 12:49:52;;;;;;;2.88;2.40;;;;;;;;;;4538006;28;20037;-63
2023/02/06 12:52:05;;;;;;;3.00;2.50;;;;;;;;;;4538608;28;20033;-63
2023/02/06 12:54:24;;;;;;;3.20;2.60;;;;;;;;;;4537442;28;20051;-63
2023/02/06 12:56:37;;;;;;;2.53;2.17;;;;;;;;;;4537298;28;20775;-63
2023/02/06 12:58:54;;;;;;;2.90;2.60;;;;;;;;;;4538181;28;20099;-63
2023/02/06 13:01:17;;;;;;;2.92;2.42;;;;;;;;;;4504306;28;20701;-63
2023/02/06 13:03:39;;;;;;;3.80;2.70;;;;;;;;;;4512186;28;20029;-63
2023/02/06 13:05:53;;;;;;;3.10;2.70;;;;;;;;;;4539220;28;20958;-61
2023/02/06 13:08:23;;;;;;;2.88;2.47;;;;;;;;;;4537343;28;20045;-63
2023/02/06 13:10:34;;;;;;;3.03;2.40;;;;;;;;;;4518944;28;20914;-63
2023/02/06 13:12:55;;;;;;;3.05;2.40;;;;;;;;;;4538906;28;20037;-62
2023/02/06 13:15:06;;;;;;;3.38;2.58;;;;;;;;;;4520722;28;20034;-63
2023/02/06 13:17:19;;;;;;;3.15;2.42;;;;;;;;;;4518295;28;20046;-62
2023/02/06 13:19:48;;;;;;;3.30;2.40;;;;;;;;;;4519734;28;20049;-63